sensor_id;sensor_type;location;lat;lon;timestamp;P1;durP1;ratioP1;P2;durP2;ratioP2
16642;SDS011;8435;52.184;5.406;2023-08-06T00:00:55;7.97;;;7.07;;
16642;SDS011;8435;52.184;5.406;2023-08-06T00:03:22;7.40;;;6.80;;
16642;SDS011;8435;52.184;5.406;2023-08-06T00:05:49;8.20;;;7.40;;
16642;SDS011;8435;52.184;5.406;2023-08-06T00:08:16;8.07;;;7.47;;
16642;SDS011;8435;52.184;5.406;2023-08-06T00:10:43;7.27;;;6.57;;
16642;SDS011;8435;52.184;5.406;2023-08-06T00:13:09;8.40;;;7.57;;
16642;SDS011;8435;52.184;5.406;2023-08-06T00:15:36;8.10;;;7.30;;
16642;SDS011;8435;52.184;5.406;2023-08-06T00:18:04;7.60;;;6.90;;
16642;SDS011;8435;52.184;5.406;2023-08-06T00:20:31;7.07;;;6.47;;
16642;SDS011;8435;52.184;5.406;2023-08-06T00:22:58;6.47;;;5.97;;
16642;SDS011;8435;52.184;5.406;2023-08-06T00:25:25;7.47;;;6.77;;
16642;SDS011;8435;52.184;5.406;2023-08-06T00:27:52;6.87;;;6.10;;
16642;SDS011;8435;52.184;5.406;2023-08-06T00:30:19;7.17;;;6.47;;
16642;SDS011;8435;52.184;5.406;2023-08-06T00:32:46;7.43;;;6.73;;
16642;SDS011;8435;52.184;5.406;2023-08-06T00:35:14;7.30;;;6.70;;
16642;SDS011;8435;52.184;5.406;2023-08-06T00:37:41;6.70;;;6.10;;
16642;SDS011;8435;52.184;5.406;2023-08-06T00:40:11;7.47;;;6.73;;
16642;SDS011;8435;52.184;5.406;2023-08-06T00:42:38;6.77;;;6.17;;
16642;SDS011;8435;52.184;5.406;2023-08-06T00:45:05;6.57;;;5.97;;
16642;SDS011;8435;52.184;5.406;2023-08-06T00:47:32;6.80;;;6.27;;
16642;SDS011;8435;52.184;5.406;2023-08-06T00:49:59;6.73;;;6.17;;
16642;SDS011;8435;52.184;5.406;2023-08-06T00:52:27;6.07;;;5.57;;
16642;SDS011;8435;52.184;5.406;2023-08-06T00:54:56;7.60;;;6.90;;
16642;SDS011;8435;52.184;5.406;2023-08-06T00:57:24;7.87;;;6.43;;
16642;SDS011;8435;52.184;5.406;2023-08-06T00:59:51;7.17;;;6.57;;
16642;SDS011;8435;52.184;5.406;2023-08-06T01:02:19;7.00;;;6.40;;
16642;SDS011;8435;52.184;5.406;2023-08-06T01:04:46;7.63;;;7.00;;
16642;SDS011;8435;52.184;5.406;2023-08-06T01:07:15;6.53;;;6.03;;
16642;SDS011;8435;52.184;5.406;2023-08-06T01:09:56;7.40;;;6.70;;
16642;SDS011;8435;52.184;5.406;2023-08-06T01:12:34;8.27;;;7.33;;
16642;SDS011;8435;52.184;5.406;2023-08-06T01:15:15;7.63;;;7.03;;
16642;SDS011;8435;52.184;5.406;2023-08-06T01:17:45;7.77;;;6.97;;
16642;SDS011;8435;52.184;5.406;2023-08-06T01:20:13;7.97;;;7.07;;
16642;SDS011;8435;52.184;5.406;2023-08-06T01:22:41;7.60;;;6.90;;
16642;SDS011;8435;52.184;5.406;2023-08-06T01:25:08;7.47;;;6.87;;
16642;SDS011;8435;52.184;5.406;2023-08-06T01:27:37;7.37;;;6.53;;
16642;SDS011;8435;52.184;5.406;2023-08-06T01:30:11;7.87;;;7.27;;
16642;SDS011;8435;52.184;5.406;2023-08-06T01:32:42;7.63;;;6.93;;
16642;SDS011;8435;52.184;5.406;2023-08-06T01:35:11;9.37;;;8.23;;
16642;SDS011;8435;52.184;5.406;2023-08-06T01:37:42;8.80;;;7.90;;
16642;SDS011;8435;52.184;5.406;2023-08-06T01:40:10;7.90;;;7.20;;
16642;SDS011;8435;52.184;5.406;2023-08-06T01:42:40;7.87;;;7.17;;
16642;SDS011;8435;52.184;5.406;2023-08-06T01:45:08;8.60;;;7.90;;
16642;SDS011;8435;52.184;5.406;2023-08-06T01:47:35;8.47;;;7.67;;
16642;SDS011;8435;52.184;5.406;2023-08-06T01:50:04;9.23;;;8.33;;
16642;SDS011;8435;52.184;5.406;2023-08-06T01:52:32;9.67;;;8.77;;
16642;SDS011;8435;52.184;5.406;2023-08-06T01:55:00;10.10;;;9.10;;
16642;SDS011;8435;52.184;5.406;2023-08-06T01:57:27;9.77;;;8.87;;
16642;SDS011;8435;52.184;5.406;2023-08-06T01:59:54;10.90;;;8.90;;
16642;SDS011;8435;52.184;5.406;2023-08-06T02:02:21;10.30;;;9.47;;
16642;SDS011;8435;52.184;5.406;2023-08-06T02:04:48;10.37;;;9.37;;
16642;SDS011;8435;52.184;5.406;2023-08-06T02:07:15;10.77;;;9.57;;
16642;SDS011;8435;52.184;5.406;2023-08-06T02:09:42;9.67;;;8.77;;
16642;SDS011;8435;52.184;5.406;2023-08-06T02:12:13;9.70;;;8.53;;
16642;SDS011;8435;52.184;5.406;2023-08-06T02:14:40;10.60;;;9.23;;
16642;SDS011;8435;52.184;5.406;2023-08-06T02:17:07;9.50;;;8.70;;
16642;SDS011;8435;52.184;5.406;2023-08-06T02:19:34;10.07;;;9.20;;
16642;SDS011;8435;52.184;5.406;2023-08-06T02:22:00;10.07;;;9.17;;
16642;SDS011;8435;52.184;5.406;2023-08-06T02:24:28;9.13;;;8.33;;
16642;SDS011;8435;52.184;5.406;2023-08-06T02:26:55;9.10;;;8.30;;
16642;SDS011;8435;52.184;5.406;2023-08-06T02:29:23;9.83;;;8.97;;
16642;SDS011;8435;52.184;5.406;2023-08-06T02:31:50;10.23;;;9.30;;
16642;SDS011;8435;52.184;5.406;2023-08-06T02:34:16;9.77;;;8.87;;
16642;SDS011;8435;52.184;5.406;2023-08-06T02:36:43;10.00;;;8.87;;
16642;SDS011;8435;52.184;5.406;2023-08-06T02:39:10;10.43;;;9.20;;
16642;SDS011;8435;52.184;5.406;2023-08-06T02:41:39;11.57;;;9.20;;
16642;SDS011;8435;52.184;5.406;2023-08-06T02:44:07;10.03;;;9.13;;
16642;SDS011;8435;52.184;5.406;2023-08-06T02:46:35;10.00;;;9.03;;
16642;SDS011;8435;52.184;5.406;2023-08-06T02:49:02;10.47;;;8.83;;
16642;SDS011;8435;52.184;5.406;2023-08-06T02:51:28;9.70;;;8.90;;
16642;SDS011;8435;52.184;5.406;2023-08-06T02:53:55;10.27;;;9.37;;
16642;SDS011;8435;52.184;5.406;2023-08-06T02:56:22;9.63;;;8.83;;
16642;SDS011;8435;52.184;5.406;2023-08-06T02:58:49;9.13;;;8.43;;
16642;SDS011;8435;52.184;5.406;2023-08-06T03:01:16;8.50;;;7.80;;
16642;SDS011;8435;52.184;5.406;2023-08-06T03:03:44;8.30;;;7.60;;
16642;SDS011;8435;52.184;5.406;2023-08-06T03:06:13;8.00;;;7.40;;
16642;SDS011;8435;52.184;5.406;2023-08-06T03:08:39;7.70;;;7.13;;
16642;SDS011;8435;52.184;5.406;2023-08-06T03:11:06;7.80;;;7.10;;
16642;SDS011;8435;52.184;5.406;2023-08-06T03:13:33;7.83;;;7.23;;
16642;SDS011;8435;52.184;5.406;2023-08-06T03:16:02;7.10;;;6.50;;
16642;SDS011;8435;52.184;5.406;2023-08-06T03:18:29;6.93;;;6.33;;
16642;SDS011;8435;52.184;5.406;2023-08-06T03:20:57;6.13;;;5.43;;
16642;SDS011;8435;52.184;5.406;2023-08-06T03:23:24;6.10;;;5.60;;
16642;SDS011;8435;52.184;5.406;2023-08-06T03:25:52;5.63;;;5.23;;
16642;SDS011;8435;52.184;5.406;2023-08-06T03:28:19;5.20;;;4.80;;
16642;SDS011;8435;52.184;5.406;2023-08-06T03:30:47;4.00;;;3.60;;
16642;SDS011;8435;52.184;5.406;2023-08-06T03:33:14;3.73;;;3.30;;
16642;SDS011;8435;52.184;5.406;2023-08-06T03:35:41;2.90;;;2.70;;
16642;SDS011;8435;52.184;5.406;2023-08-06T03:38:09;3.53;;;3.23;;
16642;SDS011;8435;52.184;5.406;2023-08-06T03:40:35;3.10;;;2.80;;
16642;SDS011;8435;52.184;5.406;2023-08-06T03:43:02;3.10;;;2.87;;
16642;SDS011;8435;52.184;5.406;2023-08-06T03:45:32;3.60;;;3.30;;
16642;SDS011;8435;52.184;5.406;2023-08-06T03:47:59;4.20;;;3.90;;
16642;SDS011;8435;52.184;5.406;2023-08-06T03:50:26;4.43;;;4.10;;
16642;SDS011;8435;52.184;5.406;2023-08-06T03:52:53;5.23;;;4.80;;
16642;SDS011;8435;52.184;5.406;2023-08-06T03:55:21;5.13;;;4.73;;
16642;SDS011;8435;52.184;5.406;2023-08-06T03:57:48;6.23;;;5.63;;
16642;SDS011;8435;52.184;5.406;2023-08-06T04:00:15;7.30;;;6.60;;
16642;SDS011;8435;52.184;5.406;2023-08-06T04:02:42;8.10;;;7.40;;
16642;SDS011;8435;52.184;5.406;2023-08-06T04:05:13;7.43;;;6.83;;
16642;SDS011;8435;52.184;5.406;2023-08-06T04:07:39;8.13;;;7.43;;
16642;SDS011;8435;52.184;5.406;2023-08-06T04:10:06;10.30;;;9.40;;
16642;SDS011;8435;52.184;5.406;2023-08-06T04:12:35;10.27;;;9.47;;
16642;SDS011;8435;52.184;5.406;2023-08-06T04:15:04;10.33;;;9.37;;
16642;SDS011;8435;52.184;5.406;2023-08-06T04:17:32;10.50;;;9.50;;
16642;SDS011;8435;52.184;5.406;2023-08-06T04:19:59;10.73;;;9.83;;
16642;SDS011;8435;52.184;5.406;2023-08-06T04:22:27;11.90;;;10.90;;
16642;SDS011;8435;52.184;5.406;2023-08-06T04:24:54;10.70;;;9.80;;
16642;SDS011;8435;52.184;5.406;2023-08-06T04:27:20;12.87;;;11.37;;
16642;SDS011;8435;52.184;5.406;2023-08-06T04:29:49;12.33;;;11.13;;
16642;SDS011;8435;52.184;5.406;2023-08-06T04:32:18;13.57;;;12.00;;
16642;SDS011;8435;52.184;5.406;2023-08-06T04:34:45;12.03;;;10.93;;
16642;SDS011;8435;52.184;5.406;2023-08-06T04:37:14;13.50;;;12.30;;
16642;SDS011;8435;52.184;5.406;2023-08-06T04:39:43;14.10;;;12.80;;
16642;SDS011;8435;52.184;5.406;2023-08-06T04:42:10;14.03;;;12.63;;
16642;SDS011;8435;52.184;5.406;2023-08-06T04:44:37;12.67;;;11.57;;
16642;SDS011;8435;52.184;5.406;2023-08-06T04:47:05;13.77;;;12.50;;
16642;SDS011;8435;52.184;5.406;2023-08-06T04:49:32;13.03;;;11.83;;
16642;SDS011;8435;52.184;5.406;2023-08-06T04:51:59;13.57;;;12.37;;
16642;SDS011;8435;52.184;5.406;2023-08-06T04:54:26;13.17;;;12.07;;
16642;SDS011;8435;52.184;5.406;2023-08-06T04:56:52;13.60;;;12.47;;
16642;SDS011;8435;52.184;5.406;2023-08-06T04:59:19;14.23;;;12.90;;
16642;SDS011;8435;52.184;5.406;2023-08-06T05:01:49;13.77;;;12.47;;
16642;SDS011;8435;52.184;5.406;2023-08-06T05:04:17;14.17;;;12.87;;
16642;SDS011;8435;52.184;5.406;2023-08-06T05:06:44;13.83;;;12.53;;
16642;SDS011;8435;52.184;5.406;2023-08-06T05:09:11;14.80;;;13.40;;
16642;SDS011;8435;52.184;5.406;2023-08-06T05:11:38;14.53;;;13.23;;
16642;SDS011;8435;52.184;5.406;2023-08-06T05:14:04;14.27;;;12.77;;
16642;SDS011;8435;52.184;5.406;2023-08-06T05:16:31;14.07;;;12.80;;
16642;SDS011;8435;52.184;5.406;2023-08-06T05:18:58;14.30;;;12.90;;
16642;SDS011;8435;52.184;5.406;2023-08-06T05:21:26;13.70;;;12.50;;
16642;SDS011;8435;52.184;5.406;2023-08-06T05:23:53;14.10;;;12.67;;
16642;SDS011;8435;52.184;5.406;2023-08-06T05:26:20;14.50;;;13.30;;
16642;SDS011;8435;52.184;5.406;2023-08-06T05:28:47;14.93;;;13.53;;
16642;SDS011;8435;52.184;5.406;2023-08-06T05:31:14;13.80;;;12.50;;
16642;SDS011;8435;52.184;5.406;2023-08-06T05:33:41;14.30;;;13.10;;
16642;SDS011;8435;52.184;5.406;2023-08-06T05:36:08;14.77;;;13.27;;
16642;SDS011;8435;52.184;5.406;2023-08-06T05:38:36;14.33;;;13.00;;
16642;SDS011;8435;52.184;5.406;2023-08-06T05:41:03;14.37;;;13.07;;
16642;SDS011;8435;52.184;5.406;2023-08-06T05:43:30;13.53;;;12.33;;
16642;SDS011;8435;52.184;5.406;2023-08-06T05:45:57;14.93;;;13.53;;
16642;SDS011;8435;52.184;5.406;2023-08-06T05:48:24;13.50;;;12.20;;
16642;SDS011;8435;52.184;5.406;2023-08-06T05:50:52;14.53;;;13.33;;
16642;SDS011;8435;52.184;5.406;2023-08-06T05:53:19;14.17;;;12.87;;
16642;SDS011;8435;52.184;5.406;2023-08-06T05:55:48;14.50;;;13.30;;
16642;SDS011;8435;52.184;5.406;2023-08-06T05:58:15;15.37;;;14.07;;
16642;SDS011;8435;52.184;5.406;2023-08-06T06:00:41;14.57;;;13.27;;
16642;SDS011;8435;52.184;5.406;2023-08-06T06:03:09;13.97;;;12.57;;
16642;SDS011;8435;52.184;5.406;2023-08-06T06:05:37;13.35;;;12.15;;
16642;SDS011;8435;52.184;5.406;2023-08-06T06:08:07;14.17;;;12.70;;
16642;SDS011;8435;52.184;5.406;2023-08-06T06:10:36;14.90;;;13.50;;
16642;SDS011;8435;52.184;5.406;2023-08-06T06:13:04;14.43;;;13.03;;
16642;SDS011;8435;52.184;5.406;2023-08-06T06:15:31;13.27;;;12.17;;
16642;SDS011;8435;52.184;5.406;2023-08-06T06:17:58;13.53;;;12.33;;
16642;SDS011;8435;52.184;5.406;2023-08-06T06:20:25;14.23;;;12.90;;
16642;SDS011;8435;52.184;5.406;2023-08-06T06:22:52;13.13;;;11.98;;
16642;SDS011;8435;52.184;5.406;2023-08-06T06:25:19;13.47;;;12.27;;
16642;SDS011;8435;52.184;5.406;2023-08-06T06:27:45;12.38;;;11.27;;
16642;SDS011;8435;52.184;5.406;2023-08-06T06:30:14;12.97;;;11.77;;
16642;SDS011;8435;52.184;5.406;2023-08-06T06:32:43;13.27;;;11.97;;
16642;SDS011;8435;52.184;5.406;2023-08-06T06:35:10;12.55;;;11.35;;
16642;SDS011;8435;52.184;5.406;2023-08-06T06:37:42;12.60;;;11.50;;
16642;SDS011;8435;52.184;5.406;2023-08-06T06:40:12;12.73;;;11.53;;
16642;SDS011;8435;52.184;5.406;2023-08-06T06:42:40;11.83;;;10.83;;
16642;SDS011;8435;52.184;5.406;2023-08-06T06:45:08;12.93;;;11.80;;
16642;SDS011;8435;52.184;5.406;2023-08-06T06:47:37;11.37;;;10.27;;
16642;SDS011;8435;52.184;5.406;2023-08-06T06:50:04;11.43;;;10.23;;
16642;SDS011;8435;52.184;5.406;2023-08-06T06:52:31;12.23;;;11.20;;
16642;SDS011;8435;52.184;5.406;2023-08-06T06:55:00;12.90;;;11.70;;
16642;SDS011;8435;52.184;5.406;2023-08-06T06:57:27;13.40;;;12.20;;
16642;SDS011;8435;52.184;5.406;2023-08-06T06:59:54;13.43;;;12.23;;
16642;SDS011;8435;52.184;5.406;2023-08-06T07:02:21;13.13;;;11.87;;
16642;SDS011;8435;52.184;5.406;2023-08-06T07:04:49;13.93;;;12.60;;
16642;SDS011;8435;52.184;5.406;2023-08-06T07:07:16;14.30;;;12.93;;
16642;SDS011;8435;52.184;5.406;2023-08-06T07:09:46;13.77;;;12.57;;
16642;SDS011;8435;52.184;5.406;2023-08-06T07:12:13;13.87;;;12.60;;
16642;SDS011;8435;52.184;5.406;2023-08-06T07:14:39;12.80;;;11.57;;
16642;SDS011;8435;52.184;5.406;2023-08-06T07:17:06;15.03;;;12.90;;
16642;SDS011;8435;52.184;5.406;2023-08-06T07:19:33;13.37;;;12.23;;
16642;SDS011;8435;52.184;5.406;2023-08-06T07:22:01;13.77;;;12.47;;
16642;SDS011;8435;52.184;5.406;2023-08-06T07:24:28;13.17;;;11.97;;
16642;SDS011;8435;52.184;5.406;2023-08-06T07:26:55;13.43;;;12.27;;
16642;SDS011;8435;52.184;5.406;2023-08-06T07:29:22;12.63;;;11.43;;
16642;SDS011;8435;52.184;5.406;2023-08-06T07:31:51;12.75;;;11.63;;
16642;SDS011;8435;52.184;5.406;2023-08-06T07:34:18;13.23;;;12.13;;
16642;SDS011;8435;52.184;5.406;2023-08-06T07:36:45;12.70;;;11.57;;
16642;SDS011;8435;52.184;5.406;2023-08-06T07:39:14;12.77;;;11.60;;
16642;SDS011;8435;52.184;5.406;2023-08-06T07:41:41;16.20;;;12.20;;
16642;SDS011;8435;52.184;5.406;2023-08-06T07:44:10;13.40;;;12.20;;
16642;SDS011;8435;52.184;5.406;2023-08-06T07:46:37;13.68;;;12.23;;
16642;SDS011;8435;52.184;5.406;2023-08-06T07:49:21;12.35;;;11.27;;
16642;SDS011;8435;52.184;5.406;2023-08-06T07:51:48;11.88;;;10.90;;
16642;SDS011;8435;52.184;5.406;2023-08-06T07:54:18;12.75;;;11.45;;
16642;SDS011;8435;52.184;5.406;2023-08-06T07:56:44;13.68;;;12.45;;
16642;SDS011;8435;52.184;5.406;2023-08-06T07:59:11;13.30;;;12.13;;
16642;SDS011;8435;52.184;5.406;2023-08-06T08:01:38;11.85;;;10.73;;
16642;SDS011;8435;52.184;5.406;2023-08-06T08:04:05;11.40;;;10.40;;
16642;SDS011;8435;52.184;5.406;2023-08-06T08:06:33;11.40;;;10.48;;
16642;SDS011;8435;52.184;5.406;2023-08-06T08:09:00;11.20;;;10.20;;
16642;SDS011;8435;52.184;5.406;2023-08-06T08:11:28;11.40;;;10.43;;
16642;SDS011;8435;52.184;5.406;2023-08-06T08:13:55;11.15;;;10.15;;
16642;SDS011;8435;52.184;5.406;2023-08-06T08:16:25;11.15;;;10.15;;
16642;SDS011;8435;52.184;5.406;2023-08-06T08:18:52;10.63;;;9.73;;
16642;SDS011;8435;52.184;5.406;2023-08-06T08:21:18;11.07;;;10.07;;
16642;SDS011;8435;52.184;5.406;2023-08-06T08:23:45;11.30;;;10.27;;
16642;SDS011;8435;52.184;5.406;2023-08-06T08:26:12;12.52;;;11.52;;
16642;SDS011;8435;52.184;5.406;2023-08-06T08:28:40;12.25;;;11.23;;
16642;SDS011;8435;52.184;5.406;2023-08-06T08:31:07;11.65;;;10.60;;
16642;SDS011;8435;52.184;5.406;2023-08-06T08:33:35;9.32;;;8.52;;
16642;SDS011;8435;52.184;5.406;2023-08-06T08:36:02;4.43;;;4.13;;
16642;SDS011;8435;52.184;5.406;2023-08-06T08:38:29;3.20;;;3.00;;
16642;SDS011;8435;52.184;5.406;2023-08-06T08:40:56;2.40;;;2.30;;
16642;SDS011;8435;52.184;5.406;2023-08-06T08:43:23;1.70;;;1.60;;
16642;SDS011;8435;52.184;5.406;2023-08-06T08:45:52;3.33;;;1.80;;
16642;SDS011;8435;52.184;5.406;2023-08-06T08:48:20;8.70;;;2.60;;
16642;SDS011;8435;52.184;5.406;2023-08-06T08:50:48;13.30;;;2.60;;
16642;SDS011;8435;52.184;5.406;2023-08-06T08:53:16;3.57;;;2.20;;
16642;SDS011;8435;52.184;5.406;2023-08-06T08:55:43;3.77;;;2.30;;
16642;SDS011;8435;52.184;5.406;2023-08-06T08:58:13;2.50;;;2.30;;
16642;SDS011;8435;52.184;5.406;2023-08-06T09:00:40;1.90;;;1.80;;
16642;SDS011;8435;52.184;5.406;2023-08-06T09:03:10;1.97;;;1.83;;
16642;SDS011;8435;52.184;5.406;2023-08-06T09:05:37;1.97;;;1.80;;
16642;SDS011;8435;52.184;5.406;2023-08-06T09:08:10;2.00;;;1.90;;
16642;SDS011;8435;52.184;5.406;2023-08-06T09:10:41;2.20;;;1.80;;
16642;SDS011;8435;52.184;5.406;2023-08-06T09:13:10;2.53;;;2.33;;
16642;SDS011;8435;52.184;5.406;2023-08-06T09:15:37;2.37;;;2.17;;
16642;SDS011;8435;52.184;5.406;2023-08-06T09:18:10;2.63;;;2.43;;
16642;SDS011;8435;52.184;5.406;2023-08-06T09:20:38;2.70;;;2.50;;
16642;SDS011;8435;52.184;5.406;2023-08-06T09:23:06;2.10;;;2.00;;
16642;SDS011;8435;52.184;5.406;2023-08-06T09:25:36;2.57;;;2.30;;
16642;SDS011;8435;52.184;5.406;2023-08-06T09:28:05;3.00;;;2.70;;
16642;SDS011;8435;52.184;5.406;2023-08-06T09:30:33;2.60;;;2.40;;
16642;SDS011;8435;52.184;5.406;2023-08-06T09:33:02;3.03;;;2.53;;
16642;SDS011;8435;52.184;5.406;2023-08-06T09:35:33;2.93;;;2.63;;
16642;SDS011;8435;52.184;5.406;2023-08-06T09:38:06;2.93;;;2.73;;
16642;SDS011;8435;52.184;5.406;2023-08-06T09:40:33;3.07;;;2.87;;
16642;SDS011;8435;52.184;5.406;2023-08-06T09:43:01;2.77;;;2.57;;
16642;SDS011;8435;52.184;5.406;2023-08-06T09:45:29;3.93;;;3.60;;
16642;SDS011;8435;52.184;5.406;2023-08-06T09:47:58;3.00;;;2.80;;
16642;SDS011;8435;52.184;5.406;2023-08-06T09:50:27;3.00;;;2.80;;
16642;SDS011;8435;52.184;5.406;2023-08-06T09:52:58;3.80;;;3.50;;
16642;SDS011;8435;52.184;5.406;2023-08-06T09:55:26;3.53;;;3.27;;
16642;SDS011;8435;52.184;5.406;2023-08-06T09:57:53;3.83;;;3.43;;
16642;SDS011;8435;52.184;5.406;2023-08-06T10:00:20;3.97;;;3.67;;
16642;SDS011;8435;52.184;5.406;2023-08-06T10:02:48;4.83;;;4.43;;
16642;SDS011;8435;52.184;5.406;2023-08-06T10:05:19;4.93;;;4.43;;
16642;SDS011;8435;52.184;5.406;2023-08-06T10:07:47;4.47;;;3.80;;
16642;SDS011;8435;52.184;5.406;2023-08-06T10:10:17;4.63;;;4.23;;
16642;SDS011;8435;52.184;5.406;2023-08-06T10:12:44;4.13;;;3.83;;
16642;SDS011;8435;52.184;5.406;2023-08-06T10:15:19;4.80;;;4.40;;
16642;SDS011;8435;52.184;5.406;2023-08-06T10:17:49;4.90;;;4.40;;
16642;SDS011;8435;52.184;5.406;2023-08-06T10:20:20;4.57;;;4.17;;
16642;SDS011;8435;52.184;5.406;2023-08-06T10:22:55;4.87;;;4.47;;
16642;SDS011;8435;52.184;5.406;2023-08-06T10:25:28;6.20;;;5.07;;
16642;SDS011;8435;52.184;5.406;2023-08-06T10:27:57;5.60;;;5.10;;
16642;SDS011;8435;52.184;5.406;2023-08-06T10:30:24;5.33;;;4.83;;
16642;SDS011;8435;52.184;5.406;2023-08-06T10:32:52;5.57;;;4.97;;
16642;SDS011;8435;52.184;5.406;2023-08-06T10:35:31;5.00;;;4.50;;
16642;SDS011;8435;52.184;5.406;2023-08-06T10:38:05;5.90;;;5.40;;
16642;SDS011;8435;52.184;5.406;2023-08-06T10:40:35;5.23;;;4.73;;
16642;SDS011;8435;52.184;5.406;2023-08-06T10:43:04;7.50;;;5.50;;
16642;SDS011;8435;52.184;5.406;2023-08-06T10:45:34;7.17;;;5.10;;
16642;SDS011;8435;52.184;5.406;2023-08-06T10:48:01;5.07;;;4.57;;
16642;SDS011;8435;52.184;5.406;2023-08-06T10:50:29;5.40;;;4.90;;
16642;SDS011;8435;52.184;5.406;2023-08-06T10:52:56;5.10;;;4.60;;
16642;SDS011;8435;52.184;5.406;2023-08-06T10:55:23;5.47;;;4.97;;
16642;SDS011;8435;52.184;5.406;2023-08-06T10:57:53;4.83;;;4.10;;
16642;SDS011;8435;52.184;5.406;2023-08-06T11:00:21;6.13;;;4.80;;
16642;SDS011;8435;52.184;5.406;2023-08-06T11:02:49;4.80;;;4.30;;
16642;SDS011;8435;52.184;5.406;2023-08-06T11:05:16;5.60;;;4.37;;
16642;SDS011;8435;52.184;5.406;2023-08-06T11:07:43;5.13;;;4.17;;
16642;SDS011;8435;52.184;5.406;2023-08-06T11:10:11;5.03;;;4.00;;
16642;SDS011;8435;52.184;5.406;2023-08-06T11:12:39;4.70;;;3.47;;
16642;SDS011;8435;52.184;5.406;2023-08-06T11:15:08;4.67;;;3.47;;
16642;SDS011;8435;52.184;5.406;2023-08-06T11:17:36;4.63;;;3.37;;
16642;SDS011;8435;52.184;5.406;2023-08-06T11:20:05;3.77;;;3.47;;
16642;SDS011;8435;52.184;5.406;2023-08-06T11:22:33;4.87;;;3.73;;
16642;SDS011;8435;52.184;5.406;2023-08-06T11:25:00;3.73;;;3.43;;
16642;SDS011;8435;52.184;5.406;2023-08-06T11:27:27;4.33;;;3.70;;
16642;SDS011;8435;52.184;5.406;2023-08-06T11:29:54;3.70;;;3.00;;
16642;SDS011;8435;52.184;5.406;2023-08-06T11:32:22;5.03;;;3.00;;
16642;SDS011;8435;52.184;5.406;2023-08-06T11:34:49;2.93;;;2.73;;
16642;SDS011;8435;52.184;5.406;2023-08-06T11:37:20;4.40;;;3.07;;
16642;SDS011;8435;52.184;5.406;2023-08-06T11:39:49;3.47;;;2.80;;
16642;SDS011;8435;52.184;5.406;2023-08-06T11:42:16;3.93;;;2.67;;
16642;SDS011;8435;52.184;5.406;2023-08-06T11:44:43;3.63;;;2.50;;
16642;SDS011;8435;52.184;5.406;2023-08-06T11:47:12;2.20;;;2.10;;
16642;SDS011;8435;52.184;5.406;2023-08-06T11:49:42;2.80;;;2.50;;
16642;SDS011;8435;52.184;5.406;2023-08-06T11:52:13;3.43;;;2.50;;
16642;SDS011;8435;52.184;5.406;2023-08-06T11:54:43;3.43;;;2.50;;
16642;SDS011;8435;52.184;5.406;2023-08-06T11:57:13;3.30;;;2.30;;
16642;SDS011;8435;52.184;5.406;2023-08-06T11:59:41;2.97;;;2.47;;
16642;SDS011;8435;52.184;5.406;2023-08-06T12:02:08;3.07;;;2.57;;
16642;SDS011;8435;52.184;5.406;2023-08-06T12:07:38;2.73;;;2.53;;
16642;SDS011;8435;52.184;5.406;2023-08-06T12:10:06;2.63;;;2.43;;
16642;SDS011;8435;52.184;5.406;2023-08-06T12:12:34;2.80;;;2.60;;
16642;SDS011;8435;52.184;5.406;2023-08-06T12:15:02;3.13;;;2.10;;
16642;SDS011;8435;52.184;5.406;2023-08-06T12:17:29;2.27;;;2.07;;
16642;SDS011;8435;52.184;5.406;2023-08-06T12:19:56;2.47;;;2.27;;
16642;SDS011;8435;52.184;5.406;2023-08-06T12:22:24;2.43;;;2.23;;
16642;SDS011;8435;52.184;5.406;2023-08-06T12:24:51;3.37;;;2.00;;
16642;SDS011;8435;52.184;5.406;2023-08-06T12:27:18;2.33;;;1.70;;
16642;SDS011;8435;52.184;5.406;2023-08-06T12:29:46;2.90;;;1.77;;
16642;SDS011;8435;52.184;5.406;2023-08-06T12:32:14;2.17;;;1.97;;
16642;SDS011;8435;52.184;5.406;2023-08-06T12:34:44;2.20;;;1.77;;
16642;SDS011;8435;52.184;5.406;2023-08-06T12:37:12;2.30;;;1.77;;
16642;SDS011;8435;52.184;5.406;2023-08-06T12:39:42;4.90;;;2.20;;
16642;SDS011;8435;52.184;5.406;2023-08-06T12:42:08;3.10;;;1.90;;
16642;SDS011;8435;52.184;5.406;2023-08-06T12:44:36;2.70;;;2.20;;
16642;SDS011;8435;52.184;5.406;2023-08-06T12:47:03;2.07;;;1.97;;
16642;SDS011;8435;52.184;5.406;2023-08-06T12:49:30;2.50;;;2.30;;
16642;SDS011;8435;52.184;5.406;2023-08-06T12:51:58;2.20;;;2.00;;
16642;SDS011;8435;52.184;5.406;2023-08-06T12:54:25;2.93;;;2.03;;
16642;SDS011;8435;52.184;5.406;2023-08-06T12:56:56;2.73;;;1.97;;
16642;SDS011;8435;52.184;5.406;2023-08-06T12:59:23;2.47;;;2.27;;
16642;SDS011;8435;52.184;5.406;2023-08-06T13:01:50;2.40;;;2.20;;
16642;SDS011;8435;52.184;5.406;2023-08-06T13:04:17;3.10;;;2.43;;
16642;SDS011;8435;52.184;5.406;2023-08-06T13:06:43;4.47;;;2.40;;
16642;SDS011;8435;52.184;5.406;2023-08-06T13:09:10;2.30;;;2.10;;
16642;SDS011;8435;52.184;5.406;2023-08-06T13:11:38;3.17;;;2.37;;
16642;SDS011;8435;52.184;5.406;2023-08-06T13:14:08;3.20;;;2.47;;
16642;SDS011;8435;52.184;5.406;2023-08-06T13:16:36;2.50;;;2.30;;
16642;SDS011;8435;52.184;5.406;2023-08-06T13:19:04;3.40;;;2.13;;
16642;SDS011;8435;52.184;5.406;2023-08-06T13:21:33;2.20;;;2.00;;
16642;SDS011;8435;52.184;5.406;2023-08-06T13:24:01;3.03;;;2.17;;
16642;SDS011;8435;52.184;5.406;2023-08-06T13:26:28;2.40;;;2.13;;
16642;SDS011;8435;52.184;5.406;2023-08-06T13:28:56;2.58;;;2.33;;
16642;SDS011;8435;52.184;5.406;2023-08-06T13:31:25;3.10;;;2.45;;
16642;SDS011;8435;52.184;5.406;2023-08-06T13:33:53;3.90;;;2.43;;
16642;SDS011;8435;52.184;5.406;2023-08-06T13:36:20;3.07;;;2.87;;
16642;SDS011;8435;52.184;5.406;2023-08-06T13:38:49;3.20;;;2.90;;
16642;SDS011;8435;52.184;5.406;2023-08-06T13:41:16;3.23;;;2.83;;
16642;SDS011;8435;52.184;5.406;2023-08-06T13:43:43;4.13;;;2.80;;
16642;SDS011;8435;52.184;5.406;2023-08-06T13:46:10;4.27;;;3.10;;
16642;SDS011;8435;52.184;5.406;2023-08-06T13:48:42;3.03;;;2.70;;
16642;SDS011;8435;52.184;5.406;2023-08-06T13:51:10;2.93;;;2.47;;
16642;SDS011;8435;52.184;5.406;2023-08-06T13:53:38;3.38;;;2.55;;
16642;SDS011;8435;52.184;5.406;2023-08-06T13:56:09;3.65;;;3.08;;
16642;SDS011;8435;52.184;5.406;2023-08-06T13:58:36;2.45;;;2.25;;
16642;SDS011;8435;52.184;5.406;2023-08-06T14:01:04;3.72;;;2.53;;
16642;SDS011;8435;52.184;5.406;2023-08-06T14:03:33;2.28;;;2.13;;
16642;SDS011;8435;52.184;5.406;2023-08-06T14:06:01;2.30;;;2.10;;
16642;SDS011;8435;52.184;5.406;2023-08-06T14:08:28;2.50;;;2.10;;
16642;SDS011;8435;52.184;5.406;2023-08-06T14:10:55;2.35;;;2.10;;
16642;SDS011;8435;52.184;5.406;2023-08-06T14:13:22;2.80;;;2.50;;
16642;SDS011;8435;52.184;5.406;2023-08-06T14:15:48;3.05;;;2.40;;
16642;SDS011;8435;52.184;5.406;2023-08-06T14:18:16;2.30;;;2.10;;
16642;SDS011;8435;52.184;5.406;2023-08-06T14:20:43;2.80;;;2.03;;
16642;SDS011;8435;52.184;5.406;2023-08-06T14:23:11;3.95;;;2.38;;
16642;SDS011;8435;52.184;5.406;2023-08-06T14:25:38;2.88;;;2.30;;
16642;SDS011;8435;52.184;5.406;2023-08-06T14:28:08;2.58;;;2.38;;
16642;SDS011;8435;52.184;5.406;2023-08-06T14:30:37;2.90;;;2.40;;
16642;SDS011;8435;52.184;5.406;2023-08-06T14:33:04;2.90;;;2.20;;
16642;SDS011;8435;52.184;5.406;2023-08-06T14:35:31;2.87;;;2.30;;
16642;SDS011;8435;52.184;5.406;2023-08-06T14:37:58;3.67;;;2.75;;
16642;SDS011;8435;52.184;5.406;2023-08-06T14:40:26;2.53;;;2.33;;
16642;SDS011;8435;52.184;5.406;2023-08-06T14:42:58;2.58;;;2.38;;
16642;SDS011;8435;52.184;5.406;2023-08-06T14:45:26;2.63;;;2.40;;
16642;SDS011;8435;52.184;5.406;2023-08-06T14:47:56;2.70;;;2.42;;
16642;SDS011;8435;52.184;5.406;2023-08-06T14:50:23;2.72;;;2.53;;
16642;SDS011;8435;52.184;5.406;2023-08-06T14:52:52;3.35;;;2.40;;
16642;SDS011;8435;52.184;5.406;2023-08-06T14:55:26;2.60;;;2.30;;
16642;SDS011;8435;52.184;5.406;2023-08-06T14:57:53;2.15;;;2.05;;
16642;SDS011;8435;52.184;5.406;2023-08-06T15:00:20;2.40;;;2.20;;